Villas de Patillas, Puerto Rico
Current Conditions -  °F | °C
As of 7:56 PM on Sunday 23 Nov 2014 (Local Time) from TJSJ Reporting Station
Light Rain Light Rain  
Wind Chill: 27°   Ceiling: 2800
Heat Index: 30°   Visibility: 9mi
Dew Point: 23°   Wind: 12mph
Humidity: 77%   Direction: 80°E
Pressure: 30"   Gusts: NA
Location:  18.0086°N, 66.0144°W
Report Text: TJSJ 232356Z 08010KT 9SM -RA BKN028 OVC050 27/23 A3000 RMK AO2 RAE01B52 SLP159 P0000 60003 T02720228 10300 20267 53014 $
Loading
Personal Weather Stations






























Interactive Weather Map New forecast layout! Learn more

10-Day Weather Forecast

Advertisements
Track Severe Weather on mobile